sensor_id;sensor_type;location;lat;lon;timestamp;pressure;altitude;pressure_sealevel;temperature;humidity
19447;BME280;9862;49.462;11.054;2023-05-12T00:00:54;97833.16;;;14.60;100.00
19447;BME280;9862;49.462;11.054;2023-05-12T00:03:21;97840.38;;;14.60;100.00
19447;BME280;9862;49.462;11.054;2023-05-12T00:05:48;97830.78;;;14.64;100.00
19447;BME280;9862;49.462;11.054;2023-05-12T00:08:16;97840.13;;;14.62;100.00
19447;BME280;9862;49.462;11.054;2023-05-12T00:10:42;97837.44;;;14.62;100.00
19447;BME280;9862;49.462;11.054;2023-05-12T00:13:09;97837.69;;;14.60;100.00
19447;BME280;9862;49.462;11.054;2023-05-12T00:15:36;97836.31;;;14.57;100.00
19447;BME280;9862;49.462;11.054;2023-05-12T00:18:02;97829.16;;;14.63;100.00
19447;BME280;9862;49.462;11.054;2023-05-12T00:20:29;97826.72;;;14.62;100.00
19447;BME280;9862;49.462;11.054;2023-05-12T00:22:55;97837.69;;;14.60;100.00
19447;BME280;9862;49.462;11.054;2023-05-12T00:25:23;97831.75;;;14.58;100.00
19447;BME280;9862;49.462;11.054;2023-05-12T00:27:50;97832.56;;;14.58;100.00
19447;BME280;9862;49.462;11.054;2023-05-12T00:30:17;97836.63;;;14.61;100.00
19447;BME280;9862;49.462;11.054;2023-05-12T00:32:43;97831.75;;;14.58;100.00
19447;BME280;9862;49.462;11.054;2023-05-12T00:35:10;97835.00;;;14.60;100.00
19447;BME280;9862;49.462;11.054;2023-05-12T00:37:36;97825.91;;;14.61;100.00
19447;BME280;9862;49.462;11.054;2023-05-12T00:40:04;97818.94;;;14.60;100.00
19447;BME280;9862;49.462;11.054;2023-05-12T00:42:34;97826.41;;;14.58;100.00
19447;BME280;9862;49.462;11.054;2023-05-12T00:45:00;97829.66;;;14.60;100.00
19447;BME280;9862;49.462;11.054;2023-05-12T00:47:27;97825.44;;;14.64;100.00
19447;BME280;9862;49.462;11.054;2023-05-12T00:49:54;97832.56;;;14.58;100.00
19447;BME280;9862;49.462;11.054;2023-05-12T00:52:21;97824.88;;;14.62;100.00
19447;BME280;9862;49.462;11.054;2023-05-12T00:54:48;97826.72;;;14.62;100.00
19447;BME280;9862;49.462;11.054;2023-05-12T00:57:15;97832.34;;;14.60;100.00
19447;BME280;9862;49.462;11.054;2023-05-12T00:59:43;97822.69;;;14.59;100.00
19447;BME280;9862;49.462;11.054;2023-05-12T01:02:10;97825.69;;;14.63;100.00
19447;BME280;9862;49.462;11.054;2023-05-12T01:04:36;97820.56;;;14.61;100.00
19447;BME280;9862;49.462;11.054;2023-05-12T01:07:06;97831.75;;;14.58;100.00
19447;BME280;9862;49.462;11.054;2023-05-12T01:09:35;97820.56;;;14.61;100.00
19447;BME280;9862;49.462;11.054;2023-05-12T01:12:02;97825.91;;;14.61;100.00
19447;BME280;9862;49.462;11.054;2023-05-12T01:14:28;97820.06;;;14.64;100.00
19447;BME280;9862;49.462;11.054;2023-05-12T01:16:58;97827.06;;;14.65;100.00
19447;BME280;9862;49.462;11.054;2023-05-12T01:19:33;97818.56;;;14.68;100.00
19447;BME280;9862;49.462;11.054;2023-05-12T01:22:03;97813.78;;;14.70;100.00
19447;BME280;9862;49.462;11.054;2023-05-12T01:24:31;97815.63;;;14.70;100.00
19447;BME280;9862;49.462;11.054;2023-05-12T01:27:02;97815.97;;;14.73;100.00
19447;BME280;9862;49.462;11.054;2023-05-12T01:29:30;97807.25;;;14.66;100.00
19447;BME280;9862;49.462;11.054;2023-05-12T01:31:58;97810.53;;;14.68;100.00
19447;BME280;9862;49.462;11.054;2023-05-12T01:34:24;97808.41;;;14.70;100.00
19447;BME280;9862;49.462;11.054;2023-05-12T01:36:51;97817.00;;;14.72;100.00
19447;BME280;9862;49.462;11.054;2023-05-12T01:39:18;97808.72;;;14.74;100.00
19447;BME280;9862;49.462;11.054;2023-05-12T01:41:44;97814.91;;;14.74;100.00
19447;BME280;9862;49.462;11.054;2023-05-12T01:44:13;97815.97;;;14.73;100.00
19447;BME280;9862;49.462;11.054;2023-05-12T01:46:39;97812.22;;;14.74;100.00
19447;BME280;9862;49.462;11.054;2023-05-12T01:49:06;97808.41;;;14.70;100.00
19447;BME280;9862;49.462;11.054;2023-05-12T01:51:32;97809.22;;;14.71;100.00
19447;BME280;9862;49.462;11.054;2023-05-12T01:53:59;97810.53;;;14.68;100.00
19447;BME280;9862;49.462;11.054;2023-05-12T01:56:25;97808.91;;;14.67;100.00
19447;BME280;9862;49.462;11.054;2023-05-12T01:58:53;97802.50;;;14.68;100.00
19447;BME280;9862;49.462;11.054;2023-05-12T02:01:21;97803.06;;;14.70;100.00
19447;BME280;9862;49.462;11.054;2023-05-12T02:03:49;97801.44;;;14.69;100.00
19447;BME280;9862;49.462;11.054;2023-05-12T02:06:16;97806.44;;;14.66;100.00
19447;BME280;9862;49.462;11.054;2023-05-12T02:08:43;97802.72;;;14.67;100.00
19447;BME280;9862;49.462;11.054;2023-05-12T02:11:10;97804.81;;;14.65;100.00
19447;BME280;9862;49.462;11.054;2023-05-12T02:13:39;97805.06;;;14.63;100.00
19447;BME280;9862;49.462;11.054;2023-05-12T02:16:07;97805.06;;;14.63;100.00
19447;BME280;9862;49.462;11.054;2023-05-12T02:18:36;97810.91;;;14.60;100.00
19447;BME280;9862;49.462;11.054;2023-05-12T02:21:05;97806.84;;;14.57;100.00
19447;BME280;9862;49.462;11.054;2023-05-12T02:23:33;97803.94;;;14.59;100.00
19447;BME280;9862;49.462;11.054;2023-05-12T02:26:00;97801.25;;;14.59;100.00
19447;BME280;9862;49.462;11.054;2023-05-12T02:28:27;97799.13;;;14.61;100.00
19447;BME280;9862;49.462;11.054;2023-05-12T02:30:54;97806.13;;;14.62;100.00
19447;BME280;9862;49.462;11.054;2023-05-12T02:33:21;97800.75;;;14.62;100.00
19447;BME280;9862;49.462;11.054;2023-05-12T02:35:50;97801.31;;;14.64;100.00
19447;BME280;9862;49.462;11.054;2023-05-12T02:38:17;97797.53;;;14.60;100.00
19447;BME280;9862;49.462;11.054;2023-05-12T02:40:45;97800.75;;;14.62;100.00
19447;BME280;9862;49.462;11.054;2023-05-12T02:43:12;97801.81;;;14.61;100.00
19447;BME280;9862;49.462;11.054;2023-05-12T02:45:38;97804.00;;;14.64;100.00
19447;BME280;9862;49.462;11.054;2023-05-12T02:48:06;97806.13;;;14.62;100.00
19447;BME280;9862;49.462;11.054;2023-05-12T02:50:33;97800.09;;;14.55;100.00
19447;BME280;9862;49.462;11.054;2023-05-12T02:53:01;97797.31;;;14.50;100.00
19447;BME280;9862;49.462;11.054;2023-05-12T02:55:28;97803.50;;;14.50;100.00
19447;BME280;9862;49.462;11.054;2023-05-12T02:57:54;97797.31;;;14.50;100.00
19447;BME280;9862;49.462;11.054;2023-05-12T03:00:21;97800.47;;;14.47;100.00
19447;BME280;9862;49.462;11.054;2023-05-12T03:02:48;97793.03;;;14.49;100.00
19447;BME280;9862;49.462;11.054;2023-05-12T03:05:15;97794.66;;;14.50;100.00
19447;BME280;9862;49.462;11.054;2023-05-12T03:07:41;97786.63;;;14.50;100.00
19447;BME280;9862;49.462;11.054;2023-05-12T03:10:09;97793.84;;;14.49;100.00
19447;BME280;9862;49.462;11.054;2023-05-12T03:12:36;97788.25;;;14.51;100.00
19447;BME280;9862;49.462;11.054;2023-05-12T03:15:03;97794.66;;;14.50;100.00
19447;BME280;9862;49.462;11.054;2023-05-12T03:17:31;97790.34;;;14.49;100.00
19447;BME280;9862;49.462;11.054;2023-05-12T03:19:57;97790.91;;;14.51;100.00
19447;BME280;9862;49.462;11.054;2023-05-12T03:22:24;97790.81;;;14.46;100.00
19447;BME280;9862;49.462;11.054;2023-05-12T03:24:50;97786.50;;;14.45;100.00
19447;BME280;9862;49.462;11.054;2023-05-12T03:27:18;97787.53;;;14.44;100.00
19447;BME280;9862;49.462;11.054;2023-05-12T03:29:45;97778.94;;;14.42;100.00
19447;BME280;9862;49.462;11.054;2023-05-12T03:32:12;97787.06;;;14.47;100.00
19447;BME280;9862;49.462;11.054;2023-05-12T03:34:38;97787.44;;;14.50;100.00
19447;BME280;9862;49.462;11.054;2023-05-12T03:37:05;97796.84;;;14.53;100.00
19447;BME280;9862;49.462;11.054;2023-05-12T03:39:32;97787.44;;;14.50;100.00
19447;BME280;9862;49.462;11.054;2023-05-12T03:41:58;97795.22;;;14.52;100.00
19447;BME280;9862;49.462;11.054;2023-05-12T03:44:26;97791.47;;;14.53;100.00
19447;BME280;9862;49.462;11.054;2023-05-12T03:46:53;97792.88;;;14.55;100.00
19447;BME280;9862;49.462;11.054;2023-05-12T03:49:19;97786.44;;;14.56;100.00
19447;BME280;9862;49.462;11.054;2023-05-12T03:51:46;97786.13;;;14.53;100.00
19447;BME280;9862;49.462;11.054;2023-05-12T03:54:12;97787.75;;;14.54;100.00
19447;BME280;9862;49.462;11.054;2023-05-12T03:56:39;97789.94;;;14.57;100.00
19447;BME280;9862;49.462;11.054;2023-05-12T03:59:05;97788.09;;;14.57;100.00
19447;BME280;9862;49.462;11.054;2023-05-12T04:01:33;97786.00;;;14.59;100.00
19447;BME280;9862;49.462;11.054;2023-05-12T04:04:00;97783.06;;;14.61;100.00
19447;BME280;9862;49.462;11.054;2023-05-12T04:06:26;97786.81;;;14.60;100.00
19447;BME280;9862;49.462;11.054;2023-05-12T04:08:53;97794.03;;;14.59;100.00
19447;BME280;9862;49.462;11.054;2023-05-12T04:11:19;97793.78;;;14.61;100.00
19447;BME280;9862;49.462;11.054;2023-05-12T04:13:47;97796.69;;;14.59;100.00
19447;BME280;9862;49.462;11.054;2023-05-12T04:16:14;97794.84;;;14.60;100.00
19447;BME280;9862;49.462;11.054;2023-05-12T04:18:42;97799.63;;;14.58;100.00
19447;BME280;9862;49.462;11.054;2023-05-12T04:21:08;97797.91;;;14.52;100.00
19447;BME280;9862;49.462;11.054;2023-05-12T04:23:35;97798.94;;;14.51;100.00
19447;BME280;9862;49.462;11.054;2023-05-12T04:26:02;97795.72;;;14.49;100.00
19447;BME280;9862;49.462;11.054;2023-05-12T04:28:30;97804.78;;;14.48;100.00
19447;BME280;9862;49.462;11.054;2023-05-12T04:31:01;97802.69;;;14.50;100.00
19447;BME280;9862;49.462;11.054;2023-05-12T04:33:28;97808.88;;;14.39;100.00
19447;BME280;9862;49.462;11.054;2023-05-12T04:35:56;97809.31;;;14.36;100.00
19447;BME280;9862;49.462;11.054;2023-05-12T04:38:23;97816.72;;;14.28;100.00
19447;BME280;9862;49.462;11.054;2023-05-12T04:40:50;97816.72;;;14.28;100.00
19447;BME280;9862;49.462;11.054;2023-05-12T04:43:16;97812.28;;;14.22;100.00
19447;BME280;9862;49.462;11.054;2023-05-12T04:45:43;97814.97;;;14.22;100.00
19447;BME280;9862;49.462;11.054;2023-05-12T04:48:09;97813.22;;;14.16;100.00
19447;BME280;9862;49.462;11.054;2023-05-12T04:50:36;97809.50;;;14.17;100.00
19447;BME280;9862;49.462;11.054;2023-05-12T04:53:04;97822.06;;;14.28;100.00
19447;BME280;9862;49.462;11.054;2023-05-12T04:55:31;97811.81;;;14.25;100.00
19447;BME280;9862;49.462;11.054;2023-05-12T04:57:57;97815.28;;;14.26;100.00
19447;BME280;9862;49.462;11.054;2023-05-12T05:00:24;97814.59;;;14.30;100.00
19447;BME280;9862;49.462;11.054;2023-05-12T05:02:51;97819.47;;;14.33;100.00
19447;BME280;9862;49.462;11.054;2023-05-12T05:05:17;97816.09;;;14.38;100.00
19447;BME280;9862;49.462;11.054;2023-05-12T05:07:44;97812.81;;;14.36;100.00
19447;BME280;9862;49.462;11.054;2023-05-12T05:10:11;97816.91;;;14.39;100.00
19447;BME280;9862;49.462;11.054;2023-05-12T05:12:38;97815.72;;;14.35;100.00
19447;BME280;9862;49.462;11.054;2023-05-12T05:15:06;97812.00;;;14.36;100.00
19447;BME280;9862;49.462;11.054;2023-05-12T05:17:34;97825.81;;;14.44;100.00
19447;BME280;9862;49.462;11.054;2023-05-12T05:20:00;97823.63;;;14.53;100.00
19447;BME280;9862;49.462;11.054;2023-05-12T05:22:27;97823.94;;;14.56;100.00
19447;BME280;9862;49.462;11.054;2023-05-12T05:24:53;97829.09;;;14.58;100.00
19447;BME280;9862;49.462;11.054;2023-05-12T05:27:21;97829.09;;;14.58;100.00
19447;BME280;9862;49.462;11.054;2023-05-12T05:29:48;97833.38;;;14.59;100.00
19447;BME280;9862;49.462;11.054;2023-05-12T05:32:14;97825.19;;;14.66;100.00
19447;BME280;9862;49.462;11.054;2023-05-12T05:34:42;97823.81;;;14.63;100.00
19447;BME280;9862;49.462;11.054;2023-05-12T05:37:09;97829.03;;;14.70;100.00
19447;BME280;9862;49.462;11.054;2023-05-12T05:39:35;97825.63;;;14.74;100.00
19447;BME280;9862;49.462;11.054;2023-05-12T05:42:02;97825.78;;;14.68;100.00
19447;BME280;9862;49.462;11.054;2023-05-12T05:44:30;97828.78;;;14.71;100.00
19447;BME280;9862;49.462;11.054;2023-05-12T05:46:57;97834.38;;;14.70;100.00
19447;BME280;9862;49.462;11.054;2023-05-12T05:49:23;97830.16;;;14.74;100.00
19447;BME280;9862;49.462;11.054;2023-05-12T05:51:50;97828.41;;;14.79;100.00
19447;BME280;9862;49.462;11.054;2023-05-12T05:54:16;97835.72;;;14.84;100.00
19447;BME280;9862;49.462;11.054;2023-05-12T05:56:43;97833.28;;;14.82;100.00
19447;BME280;9862;49.462;11.054;2023-05-12T05:59:09;97841.59;;;14.98;100.00
19447;BME280;9862;49.462;11.054;2023-05-12T06:01:39;97838.13;;;14.85;100.00
19447;BME280;9862;49.462;11.054;2023-05-12T06:04:06;97844.00;;;14.82;100.00
19447;BME280;9862;49.462;11.054;2023-05-12T06:06:33;97837.44;;;14.90;100.00
19447;BME280;9862;49.462;11.054;2023-05-12T06:09:00;97842.13;;;14.83;100.00
19447;BME280;9862;49.462;11.054;2023-05-12T06:11:26;97848.53;;;14.82;100.00
19447;BME280;9862;49.462;11.054;2023-05-12T06:13:53;97853.59;;;14.95;100.00
19447;BME280;9862;49.462;11.054;2023-05-12T06:16:19;97850.72;;;14.85;100.00
19447;BME280;9862;49.462;11.054;2023-05-12T06:18:47;97852.59;;;14.84;100.00
19447;BME280;9862;49.462;11.054;2023-05-12T06:21:14;97853.31;;;14.80;100.00
19447;BME280;9862;49.462;11.054;2023-05-12T06:23:40;97850.16;;;14.83;100.00
19447;BME280;9862;49.462;11.054;2023-05-12T06:26:07;97856.19;;;14.90;100.00
19447;BME280;9862;49.462;11.054;2023-05-12T06:28:33;97859.13;;;14.88;100.00
19447;BME280;9862;49.462;11.054;2023-05-12T06:31:00;97869.41;;;14.80;100.00
19447;BME280;9862;49.462;11.054;2023-05-12T06:33:27;97867.53;;;14.80;100.00
19447;BME280;9862;49.462;11.054;2023-05-12T06:35:55;97870.78;;;14.82;100.00
19447;BME280;9862;49.462;11.054;2023-05-12T06:38:21;97872.97;;;14.85;100.00
19447;BME280;9862;49.462;11.054;2023-05-12T06:40:48;97867.84;;;14.84;100.00
19447;BME280;9862;49.462;11.054;2023-05-12T06:43:14;97868.22;;;14.87;100.00
19447;BME280;9862;49.462;11.054;2023-05-12T06:45:42;97869.84;;;14.88;100.00
19447;BME280;9862;49.462;11.054;2023-05-12T06:48:08;97870.41;;;14.91;100.00
19447;BME280;9862;49.462;11.054;2023-05-12T06:50:36;97877.56;;;15.02;100.00
19447;BME280;9862;49.462;11.054;2023-05-12T06:53:04;97873.25;;;15.01;100.00
19447;BME280;9862;49.462;11.054;2023-05-12T06:55:30;97872.78;;;15.04;100.00
19447;BME280;9862;49.462;11.054;2023-05-12T06:57:57;97877.19;;;15.10;100.00
19447;BME280;9862;49.462;11.054;2023-05-12T07:00:24;97873.31;;;15.17;100.00
19447;BME280;9862;49.462;11.054;2023-05-12T07:02:51;97866.63;;;15.20;100.00
19447;BME280;9862;49.462;11.054;2023-05-12T07:05:18;97873.94;;;15.25;100.00
19447;BME280;9862;49.462;11.054;2023-05-12T07:07:45;97875.91;;;15.29;100.00
19447;BME280;9862;49.462;11.054;2023-05-12T07:10:13;97881.75;;;15.26;100.00
19447;BME280;9862;49.462;11.054;2023-05-12T07:12:40;97875.41;;;15.32;100.00
19447;BME280;9862;49.462;11.054;2023-05-12T07:15:07;97879.97;;;15.32;100.00
19447;BME280;9862;49.462;11.054;2023-05-12T07:17:34;97877.53;;;15.30;100.00
19447;BME280;9862;49.462;11.054;2023-05-12T07:20:01;97882.56;;;15.27;100.00
19447;BME280;9862;49.462;11.054;2023-05-12T07:22:29;97885.97;;;15.22;100.00
19447;BME280;9862;49.462;11.054;2023-05-12T07:24:56;97879.78;;;15.22;100.00
19447;BME280;9862;49.462;11.054;2023-05-12T07:27:24;97879.31;;;15.25;100.00
19447;BME280;9862;49.462;11.054;2023-05-12T07:29:51;97879.16;;;15.31;100.00
19447;BME280;9862;49.462;11.054;2023-05-12T07:32:17;97885.31;;;15.32;100.00
19447;BME280;9862;49.462;11.054;2023-05-12T07:34:44;97886.13;;;15.32;100.00
19447;BME280;9862;49.462;11.054;2023-05-12T07:37:10;97882.50;;;15.38;100.00
19447;BME280;9862;49.462;11.054;2023-05-12T07:39:37;97884.22;;;15.44;100.00
19447;BME280;9862;49.462;11.054;2023-05-12T07:42:04;97880.28;;;15.52;100.00
19447;BME280;9862;49.462;11.054;2023-05-12T07:44:32;97887.53;;;15.52;100.00
19447;BME280;9862;49.462;11.054;2023-05-12T07:46:59;97882.91;;;15.47;100.00
19447;BME280;9862;49.462;11.054;2023-05-12T07:49:25;97886.97;;;15.50;100.00
19447;BME280;9862;49.462;11.054;2023-05-12T07:51:52;97888.28;;;15.47;100.00
19447;BME280;9862;49.462;11.054;2023-05-12T07:54:18;97894.53;;;15.53;100.00
19447;BME280;9862;49.462;11.054;2023-05-12T07:56:45;97886.66;;;15.63;100.00
19447;BME280;9862;49.462;11.054;2023-05-12T07:59:11;97890.75;;;15.65;100.00
19447;BME280;9862;49.462;11.054;2023-05-12T08:01:40;97887.88;;;15.72;100.00
19447;BME280;9862;49.462;11.054;2023-05-12T08:04:07;97891.56;;;15.66;100.00
19447;BME280;9862;49.462;11.054;2023-05-12T08:06:35;97891.22;;;15.62;100.00
19447;BME280;9862;49.462;11.054;2023-05-12T08:09:02;97892.50;;;15.60;100.00
19447;BME280;9862;49.462;11.054;2023-05-12T08:11:28;97899.97;;;15.58;100.00
19447;BME280;9862;49.462;11.054;2023-05-12T08:13:55;97899.50;;;15.61;100.00
19447;BME280;9862;49.462;11.054;2023-05-12T08:16:21;97896.72;;;15.56;100.00
19447;BME280;9862;49.462;11.054;2023-05-12T08:18:49;97899.41;;;15.56;100.00
19447;BME280;9862;49.462;11.054;2023-05-12T08:21:16;97902.81;;;15.51;100.00
19447;BME280;9862;49.462;11.054;2023-05-12T08:23:42;97899.88;;;15.53;100.00
19447;BME280;9862;49.462;11.054;2023-05-12T08:26:09;97908.13;;;15.63;100.00
19447;BME280;9862;49.462;11.054;2023-05-12T08:28:36;97894.16;;;15.61;100.00
19447;BME280;9862;49.462;11.054;2023-05-12T08:31:02;97905.78;;;15.66;100.00
19447;BME280;9862;49.462;11.054;2023-05-12T08:33:29;97901.63;;;15.76;100.00
19447;BME280;9862;49.462;11.054;2023-05-12T08:35:57;97902.59;;;15.86;100.00
19447;BME280;9862;49.462;11.054;2023-05-12T08:38:23;97902.03;;;15.84;100.00
19447;BME280;9862;49.462;11.054;2023-05-12T08:40:58;97913.78;;;16.00;100.00
19447;BME280;9862;49.462;11.054;2023-05-12T08:43:35;97908.19;;;16.01;100.00
19447;BME280;9862;49.462;11.054;2023-05-12T08:46:03;97916.22;;;16.01;100.00
19447;BME280;9862;49.462;11.054;2023-05-12T08:48:33;97913.78;;;16.00;100.00
19447;BME280;9862;49.462;11.054;2023-05-12T08:51:01;97909.34;;;16.06;100.00
19447;BME280;9862;49.462;11.054;2023-05-12T08:53:28;97917.50;;;15.94;100.00
19447;BME280;9862;49.462;11.054;2023-05-12T08:55:59;97913.03;;;15.83;100.00
19447;BME280;9862;49.462;11.054;2023-05-12T08:58:28;97918.22;;;15.72;100.00
19447;BME280;9862;49.462;11.054;2023-05-12T09:00:56;97930.59;;;15.73;100.00
19447;BME280;9862;49.462;11.054;2023-05-12T09:03:25;97917.41;;;15.72;100.00
19447;BME280;9862;49.462;11.054;2023-05-12T09:05:53;97921.72;;;15.73;100.00
19447;BME280;9862;49.462;11.054;2023-05-12T09:08:22;97924.56;;;15.83;100.00
19447;BME280;9862;49.462;11.054;2023-05-12T09:10:49;97927.88;;;15.90;100.00
19447;BME280;9862;49.462;11.054;2023-05-12T09:13:22;97933.66;;;15.99;100.00
19447;BME280;9862;49.462;11.054;2023-05-12T09:15:52;97926.94;;;16.18;100.00
19447;BME280;9862;49.462;11.054;2023-05-12T09:18:20;97932.31;;;16.18;100.00
19447;BME280;9862;49.462;11.054;2023-05-12T09:20:47;97928.28;;;16.16;100.00
19447;BME280;9862;49.462;11.054;2023-05-12T09:23:15;97919.09;;;16.12;100.00
19447;BME280;9862;49.462;11.054;2023-05-12T09:25:43;97935.13;;;16.07;100.00
19447;BME280;9862;49.462;11.054;2023-05-12T09:28:11;97932.19;;;16.08;100.00
19447;BME280;9862;49.462;11.054;2023-05-12T09:30:38;97927.63;;;16.09;100.00
19447;BME280;9862;49.462;11.054;2023-05-12T09:33:07;97926.41;;;16.16;100.00
19447;BME280;9862;49.462;11.054;2023-05-12T09:35:38;97928.28;;;16.16;100.00
19447;BME280;9862;49.462;11.054;2023-05-12T09:38:05;97930.53;;;16.24;100.00
19447;BME280;9862;49.462;11.054;2023-05-12T09:40:32;97931.78;;;16.38;100.00
19447;BME280;9862;49.462;11.054;2023-05-12T09:43:00;97926.75;;;16.42;100.00
19447;BME280;9862;49.462;11.054;2023-05-12T09:45:27;97933.06;;;16.52;100.00
19447;BME280;9862;49.462;11.054;2023-05-12T09:47:53;97925.88;;;16.58;100.00
19447;BME280;9862;49.462;11.054;2023-05-12T09:50:22;97931.63;;;16.67;100.00
19447;BME280;9862;49.462;11.054;2023-05-12T09:52:49;97924.47;;;16.72;100.00
19447;BME280;9862;49.462;11.054;2023-05-12T09:55:16;97922.16;;;16.81;100.00
19447;BME280;9862;49.462;11.054;2023-05-12T09:57:43;97913.06;;;16.87;100.00
19447;BME280;9862;49.462;11.054;2023-05-12T10:00:13;97918.19;;;16.88;100.00
19447;BME280;9862;49.462;11.054;2023-05-12T10:02:42;97919.38;;;16.98;100.00
19447;BME280;9862;49.462;11.054;2023-05-12T10:05:13;97917.88;;;17.07;100.00
19447;BME280;9862;49.462;11.054;2023-05-12T10:07:41;97915.28;;;17.17;100.00
19447;BME280;9862;49.462;11.054;2023-05-12T10:10:10;97921.00;;;17.26;100.00
19447;BME280;9862;49.462;11.054;2023-05-12T10:12:39;97919.41;;;17.25;100.00
19447;BME280;9862;49.462;11.054;2023-05-12T10:15:09;97912.50;;;17.34;100.00
19447;BME280;9862;49.462;11.054;2023-05-12T10:17:38;97911.06;;;17.26;100.00
19447;BME280;9862;49.462;11.054;2023-05-12T10:20:08;97917.50;;;17.25;100.00
19447;BME280;9862;49.462;11.054;2023-05-12T10:22:37;97912.09;;;17.20;100.00
19447;BME280;9862;49.462;11.054;2023-05-12T10:25:05;97921.44;;;17.12;100.00
19447;BME280;9862;49.462;11.054;2023-05-12T10:27:33;97924.63;;;17.09;100.00
19447;BME280;9862;49.462;11.054;2023-05-12T10:30:00;97917.00;;;17.01;100.00
19447;BME280;9862;49.462;11.054;2023-05-12T10:32:28;97917.28;;;17.00;100.00
19447;BME280;9862;49.462;11.054;2023-05-12T10:35:06;97910.34;;;16.82;100.00
19447;BME280;9862;49.462;11.054;2023-05-12T10:37:34;97917.75;;;16.70;100.00
19447;BME280;9862;49.462;11.054;2023-05-12T10:40:00;97922.13;;;16.59;100.00
19447;BME280;9862;49.462;11.054;2023-05-12T10:42:36;97917.56;;;16.59;100.00
19447;BME280;9862;49.462;11.054;2023-05-12T10:45:13;97922.94;;;16.59;100.00
19447;BME280;9862;49.462;11.054;2023-05-12T10:47:41;97928.00;;;16.56;100.00
19447;BME280;9862;49.462;11.054;2023-05-12T10:50:10;97931.06;;;16.65;100.00
19447;BME280;9862;49.462;11.054;2023-05-12T10:52:38;97932.28;;;16.74;100.00
19447;BME280;9862;49.462;11.054;2023-05-12T10:55:10;97933.25;;;16.68;100.00
19447;BME280;9862;49.462;11.054;2023-05-12T10:57:48;97931.88;;;16.65;100.00
19447;BME280;9862;49.462;11.054;2023-05-12T11:00:20;97934.31;;;16.67;100.00
19447;BME280;9862;49.462;11.054;2023-05-12T11:02:49;97941.78;;;16.81;100.00
19447;BME280;9862;49.462;11.054;2023-05-12T11:05:17;97936.19;;;16.88;100.00
19447;BME280;9862;49.462;11.054;2023-05-12T11:07:48;97931.41;;;16.90;100.00
19447;BME280;9862;49.462;11.054;2023-05-12T11:10:15;97928.31;;;17.03;100.00
19447;BME280;9862;49.462;11.054;2023-05-12T11:12:42;97926.19;;;17.05;100.00
19447;BME280;9862;49.462;11.054;2023-05-12T11:15:10;97933.78;;;17.08;100.00
19447;BME280;9862;49.462;11.054;2023-05-12T11:17:38;97929.53;;;17.17;100.00
19447;BME280;9862;49.462;11.054;2023-05-12T11:20:06;97927.56;;;17.08;100.00
19447;BME280;9862;49.462;11.054;2023-05-12T11:22:35;97938.06;;;17.09;100.00
19447;BME280;9862;49.462;11.054;2023-05-12T11:25:09;97938.97;;;16.93;100.00
19447;BME280;9862;49.462;11.054;2023-05-12T11:27:36;97940.03;;;16.92;100.00
19447;BME280;9862;49.462;11.054;2023-05-12T11:30:07;97949.16;;;16.91;100.00
19447;BME280;9862;49.462;11.054;2023-05-12T11:32:35;97945.69;;;16.96;100.00
19447;BME280;9862;49.462;11.054;2023-05-12T11:35:09;97947.91;;;16.99;100.00
19447;BME280;9862;49.462;11.054;2023-05-12T11:37:37;97942.16;;;16.90;100.00
19447;BME280;9862;49.462;11.054;2023-05-12T11:40:12;97943.16;;;16.84;100.00
19447;BME280;9862;49.462;11.054;2023-05-12T11:42:39;97957.28;;;16.74;100.00
19447;BME280;9862;49.462;11.054;2023-05-12T11:45:18;97960.72;;;16.70;100.00
19447;BME280;9862;49.462;11.054;2023-05-12T11:47:45;97942.88;;;16.64;100.00
19447;BME280;9862;49.462;11.054;2023-05-12T11:50:19;97948.44;;;16.57;100.00
19447;BME280;9862;49.462;11.054;2023-05-12T11:52:46;97954.00;;;16.50;100.00
19447;BME280;9862;49.462;11.054;2023-05-12T11:55:18;97954.44;;;16.42;100.00
19447;BME280;9862;49.462;11.054;2023-05-12T11:57:54;97959.16;;;16.35;100.00
19447;BME280;9862;49.462;11.054;2023-05-12T12:00:27;97953.47;;;16.31;100.00
19447;BME280;9862;49.462;11.054;2023-05-12T12:03:05;97957.53;;;16.34;100.00
19447;BME280;9862;49.462;11.054;2023-05-12T12:05:32;97959.81;;;16.42;100.00
19447;BME280;9862;49.462;11.054;2023-05-12T12:08:05;97958.78;;;16.48;100.00
19447;BME280;9862;49.462;11.054;2023-05-12T12:10:32;97966.25;;;16.63;100.00
19447;BME280;9862;49.462;11.054;2023-05-12T12:12:59;97966.56;;;16.67;100.00
19447;BME280;9862;49.462;11.054;2023-05-12T12:15:26;97966.09;;;16.70;100.00
19447;BME280;9862;49.462;11.054;2023-05-12T12:17:53;97962.81;;;16.68;100.00
19447;BME280;9862;49.462;11.054;2023-05-12T12:20:19;97970.31;;;16.66;100.00
19447;BME280;9862;49.462;11.054;2023-05-12T12:22:46;97967.31;;;16.62;100.00
19447;BME280;9862;49.462;11.054;2023-05-12T12:25:14;97973.00;;;16.66;100.00
19447;BME280;9862;49.462;11.054;2023-05-12T12:27:40;97976.09;;;16.57;100.00
19447;BME280;9862;49.462;11.054;2023-05-12T12:30:08;97978.78;;;16.57;100.00
19447;BME280;9862;49.462;11.054;2023-05-12T12:32:35;97983.59;;;16.55;100.00
19447;BME280;9862;49.462;11.054;2023-05-12T12:35:01;97987.34;;;16.54;100.00
19447;BME280;9862;49.462;11.054;2023-05-12T12:37:30;97987.75;;;16.63;100.00
19447;BME280;9862;49.462;11.054;2023-05-12T12:39:57;97981.88;;;16.66;100.00
19447;BME280;9862;49.462;11.054;2023-05-12T12:42:25;97983.44;;;16.62;100.00
19447;BME280;9862;49.462;11.054;2023-05-12T12:44:52;97987.91;;;16.56;100.00
19447;BME280;9862;49.462;11.054;2023-05-12T12:47:18;97984.69;;;16.54;100.00
19447;BME280;9862;49.462;11.054;2023-05-12T12:49:45;97991.66;;;16.55;100.00
19447;BME280;9862;49.462;11.054;2023-05-12T12:52:12;97992.66;;;16.49;100.00